Time;durP1;ratioP1;P1;durP2;ratioP2;P2;SDS_P1;SDS_P2;PMS_P1;PMS_P2;Temp;Humidity;BMP_temperature;BMP_pressure;BME280_temperature;BME280_humidity;BME280_pressure;Samples;Min_cycle;Max_cycle;Signal;HPM_P1;HPM_P2
2022/08/25 05:35:20;;;;;;;16.30;3.85;;;24.10;99.90;;;;;;5265632;27;20433;-68
2022/08/25 05:37:51;;;;;;;28.17;4.95;;;25.10;99.90;;;;;;5264722;28;20035;-63
2022/08/25 05:40:22;;;;;;;19.52;4.03;;;24.80;99.90;;;;;;5263546;28;20032;-64
2022/08/25 05:42:53;;;;;;;18.65;3.80;;;24.80;99.90;;;;;;5259770;28;20387;-62
2022/08/25 05:45:24;;;;;;;12.27;3.53;;;24.80;99.90;;;;;;5264551;28;20020;-64
2022/08/25 05:47:55;;;;;;;16.33;3.72;;;24.80;99.90;;;;;;5264186;28;20418;-64
2022/08/25 05:50:26;;;;;;;25.95;4.38;;;25.00;99.90;;;;;;5263538;28;20352;-63
2022/08/25 05:52:57;;;;;;;9.95;3.42;;;25.60;99.90;;;;;;5263595;28;20429;-63
2022/08/25 05:55:28;;;;;;;17.83;3.70;;;26.60;99.90;;;;;;5263677;28;20029;-60
2022/08/25 05:57:59;;;;;;;27.77;4.90;;;24.80;99.90;;;;;;5264006;28;20024;-61
2022/08/25 06:00:30;;;;;;;13.95;3.20;;;24.90;99.90;;;;;;5261219;28;20047;-61
2022/08/25 06:03:01;;;;;;;22.27;4.05;;;24.80;99.90;;;;;;5264060;28;20062;-62
2022/08/25 06:05:32;;;;;;;22.08;4.20;;;24.80;99.90;;;;;;5263923;28;20020;-60
2022/08/25 06:08:07;;;;;;;17.10;4.20;;;24.80;99.90;;;;;;5260755;28;20050;-60
2022/08/25 06:10:38;;;;;;;41.70;4.55;;;24.80;99.90;;;;;;5269986;28;20475;-62
2022/08/25 06:13:09;;;;;;;18.02;4.43;;;24.70;99.90;;;;;;5280405;28;20536;-61
2022/08/25 06:15:39;;;;;;;16.67;3.83;;;24.80;99.90;;;;;;5270116;28;20027;-64
2022/08/25 06:18:10;;;;;;;19.70;3.50;;;24.80;99.90;;;;;;5273807;28;20382;-64
2022/08/25 06:20:41;;;;;;;19.73;3.92;;;24.70;99.90;;;;;;5278891;28;20090;-63
2022/08/25 06:23:12;;;;;;;25.65;4.45;;;24.70;99.90;;;;;;5267768;28;20464;-63
2022/08/25 06:25:55;;;;;;;20.40;3.72;;;24.70;99.90;;;;;;5277598;28;20073;-64
2022/08/25 06:28:26;;;;;;;15.75;3.60;;;24.70;99.90;;;;;;5276343;28;20060;-65
2022/08/25 06:31:00;;;;;;;24.92;4.47;;;24.70;99.90;;;;;;5267321;28;20048;-65
2022/08/25 06:33:31;;;;;;;18.08;4.38;;;24.70;99.90;;;;;;5278592;28;20052;-66
2022/08/25 06:36:03;;;;;;;11.43;3.22;;;24.70;99.90;;;;;;5272861;28;20485;-64
2022/08/25 06:38:36;;;;;;;21.73;3.58;;;24.70;99.90;;;;;;5265919;28;20044;-66
2022/08/25 06:41:12;;;;;;;14.27;4.00;;;24.70;99.90;;;;;;5278107;28;20040;-63
2022/08/25 06:43:44;;;;;;;17.60;3.35;;;24.60;99.90;;;;;;5270359;28;20028;-63
2022/08/25 06:46:21;;;;;;;21.05;4.38;;;24.70;99.90;;;;;;5260738;28;20032;-63
2022/08/25 06:48:53;;;;;;;18.88;4.07;;;24.70;99.90;;;;;;5252639;28;20025;-64
2022/08/25 06:51:26;;;;;;;11.15;3.25;;;24.70;99.90;;;;;;5247270;28;20043;-65
2022/08/25 06:53:57;;;;;;;17.55;4.28;;;24.70;99.90;;;;;;5260795;28;20037;-67
2022/08/25 06:56:27;;;;;;;14.00;3.55;;;24.70;99.90;;;;;;5262158;28;20017;-66
2022/08/25 06:59:01;;;;;;;13.93;3.72;;;24.70;99.90;;;;;;5252758;28;20032;-63
2022/08/25 07:01:32;;;;;;;18.13;3.10;;;24.50;99.90;;;;;;5256835;28;20029;-63
2022/08/25 07:04:05;;;;;;;22.23;4.03;;;24.50;99.90;;;;;;5247721;28;20481;-63
2022/08/25 07:06:36;;;;;;;18.77;4.20;;;24.60;99.90;;;;;;5255167;28;20126;-64
2022/08/25 07:09:09;;;;;;;19.48;3.63;;;24.80;99.90;;;;;;5265369;28;20043;-63
2022/08/25 07:11:41;;;;;;;17.13;3.80;;;24.40;99.90;;;;;;5255394;28;20386;-68
2022/08/25 07:14:15;;;;;;;16.65;4.00;;;24.40;99.90;;;;;;5258697;28;20425;-61
2022/08/25 07:16:46;;;;;;;13.57;3.80;;;24.30;99.90;;;;;;5264106;28;20467;-61
2022/08/25 07:19:20;;;;;;;17.23;4.20;;;24.30;99.90;;;;;;5252681;28;20059;-61
2022/08/25 07:21:55;;;;;;;17.92;3.83;;;24.30;99.90;;;;;;5261235;28;20025;-61
2022/08/25 07:24:31;;;;;;;20.70;3.85;;;24.30;99.90;;;;;;5261530;28;20115;-61
2022/08/25 07:27:02;;;;;;;13.65;3.95;;;24.50;99.90;;;;;;5252500;28;20047;-61
2022/08/25 07:29:37;;;;;;;17.10;4.13;;;24.50;99.90;;;;;;5263878;28;20063;-64
2022/08/25 07:32:08;;;;;;;15.80;3.33;;;24.50;99.90;;;;;;5258995;28;20028;-60
2022/08/25 07:37:28;;;;;;;18.08;3.65;;;24.40;99.90;;;;;;5237717;28;20531;-61
2022/08/25 07:40:03;;;;;;;20.70;4.18;;;24.50;99.90;;;;;;5261187;28;20024;-62
2022/08/25 07:42:34;;;;;;;16.70;3.30;;;24.50;99.90;;;;;;5254903;28;20448;-61
2022/08/25 07:45:06;;;;;;;19.20;3.83;;;24.40;99.90;;;;;;5264976;28;20039;-63
2022/08/25 07:47:38;;;;;;;10.23;3.45;;;24.40;99.90;;;;;;5254165;28;20019;-61
2022/08/25 07:50:11;;;;;;;13.75;3.58;;;24.50;99.90;;;;;;5258202;28;20067;-61
2022/08/25 07:52:42;;;;;;;20.38;4.25;;;24.50;99.90;;;;;;5263060;28;20024;-61
2022/08/25 07:55:13;;;;;;;15.05;3.85;;;24.60;99.90;;;;;;5251846;28;20093;-61
2022/08/25 07:57:44;;;;;;;12.10;3.03;;;24.60;99.90;;;;;;5260417;28;20024;-61
2022/08/25 08:00:15;;;;;;;13.80;3.58;;;24.50;99.90;;;;;;5259251;28;20035;-61
2022/08/25 08:02:46;;;;;;;15.57;3.50;;;24.60;99.90;;;;;;5252509;28;20035;-64
2022/08/25 08:05:17;;;;;;;16.23;3.55;;;24.60;99.90;;;;;;5264276;28;20078;-65
2022/08/25 08:07:48;;;;;;;17.70;3.92;;;24.60;99.90;;;;;;5255251;28;20022;-64
2022/08/25 08:10:19;;;;;;;19.63;3.92;;;24.60;99.90;;;;;;5260416;28;20112;-61
2022/08/25 08:12:52;;;;;;;15.10;3.42;;;24.60;99.90;;;;;;5251670;28;20055;-63
2022/08/25 08:15:23;;;;;;;16.73;4.43;;;24.70;99.90;;;;;;5234990;28;20039;-61
2022/08/25 08:17:54;;;;;;;17.15;3.47;;;24.70;99.90;;;;;;5259878;28;20012;-64
2022/08/25 08:20:25;;;;;;;16.45;3.67;;;24.80;99.90;;;;;;5260227;28;20039;-61
2022/08/25 08:22:56;;;;;;;15.77;3.42;;;24.70;99.90;;;;;;5241221;28;20060;-65
2022/08/25 08:25:27;;;;;;;19.15;3.53;;;24.80;99.90;;;;;;5250867;28;20055;-63
2022/08/25 08:27:58;;;;;;;17.30;3.75;;;24.80;99.90;;;;;;5258903;28;20139;-66
2022/08/25 08:30:29;;;;;;;17.02;3.35;;;24.70;99.90;;;;;;5260675;28;20459;-65
2022/08/25 08:33:00;;;;;;;18.20;4.70;;;24.70;99.90;;;;;;5250869;28;20041;-63
2022/08/25 08:35:31;;;;;;;19.02;3.53;;;24.80;99.90;;;;;;5262573;28;20031;-65
2022/08/25 08:38:02;;;;;;;23.42;4.53;;;24.90;99.90;;;;;;5255842;28;20028;-63
2022/08/25 08:42:15;;;;;;;18.92;3.83;;;25.00;99.90;;;;;;5261333;28;20099;-62
2022/08/25 08:43:34;;;;;;;15.65;3.65;;;25.00;99.90;;;;;;5237809;28;20559;-62
2022/08/25 08:46:06;;;;;;;17.77;4.30;;;24.80;99.90;;;;;;5257694;28;20036;-63
2022/08/25 08:49:00;;;;;;;14.73;3.47;;;25.00;99.90;;;;;;5261378;28;20032;-63
2022/08/25 08:51:39;;;;;;;17.73;3.53;;;25.00;99.90;;;;;;5237015;28;20051;-61
2022/08/25 08:54:19;;;;;;;14.10;3.35;;;25.00;99.90;;;;;;5250508;28;20470;-64
2022/08/25 08:56:54;;;;;;;;;;;25.00;99.90;;;;;;5263605;28;20490;-65
2022/08/25 08:59:30;;;;;;;16.38;4.18;;;24.80;99.90;;;;;;5235027;28;20412;-61
2022/08/25 09:02:04;;;;;;;17.80;3.58;;;24.90;99.90;;;;;;5258183;28;20124;-61
2022/08/25 09:04:48;;;;;;;18.13;4.80;;;24.90;99.90;;;;;;5259692;28;20097;-62
2022/08/25 09:07:25;;;;;;;21.33;4.60;;;25.00;99.90;;;;;;5263352;28;20024;-62
2022/08/25 09:09:56;;;;;;;14.82;3.40;;;25.10;99.90;;;;;;5254060;28;20028;-62
2022/08/25 09:12:33;;;;;;;14.23;2.92;;;25.10;99.90;;;;;;5259759;28;20020;-63
2022/08/25 09:15:23;;;;;;;26.58;3.55;;;25.00;99.90;;;;;;5250567;28;20040;-65
2022/08/25 09:18:10;;;;;;;20.80;3.67;;;25.10;99.90;;;;;;5258724;28;20025;-66
2022/08/25 09:20:56;;;;;;;20.02;4.15;;;25.10;99.90;;;;;;5261303;28;20115;-62
2022/08/25 09:23:52;;;;;;;18.30;3.08;;;24.90;99.90;;;;;;5235443;28;20020;-63
2022/08/25 09:26:38;;;;;;;15.05;3.13;;;25.00;99.90;;;;;;5254798;28;20020;-65
2022/08/25 09:29:14;;;;;;;16.00;3.83;;;25.10;99.90;;;;;;5262938;28;20027;-61
2022/08/25 09:31:47;;;;;;;16.58;3.40;;;25.30;99.90;;;;;;5253535;28;20024;-65
2022/08/25 09:34:20;;;;;;;22.00;3.47;;;25.20;99.90;;;;;;5254898;28;20052;-63
2022/08/25 09:36:51;;;;;;;17.58;3.70;;;25.20;99.90;;;;;;5254098;28;20019;-65
2022/08/25 09:39:22;;;;;;;19.05;3.47;;;25.20;99.90;;;;;;5248389;28;20103;-61
2022/08/25 09:41:59;;;;;;;20.75;3.67;;;25.30;99.90;;;;;;5261812;28;20012;-65
2022/08/25 09:44:40;;;;;;;17.60;3.38;;;25.20;99.90;;;;;;5253665;28;20059;-65
2022/08/25 09:47:16;;;;;;;20.20;4.20;;;25.20;99.90;;;;;;5262809;28;20024;-62
2022/08/25 09:49:50;;;;;;;12.68;3.53;;;25.10;99.90;;;;;;5253603;28;20024;-66
2022/08/25 09:52:32;;;;;;;16.17;3.45;;;25.30;99.90;;;;;;5254538;28;20102;-64
2022/08/25 09:55:14;;;;;;;14.68;3.50;;;25.30;99.90;;;;;;5262304;28;20040;-66
2022/08/25 09:57:47;;;;;;;13.77;3.65;;;25.30;99.90;;;;;;5253356;28;20527;-61
2022/08/25 10:00:24;;;;;;;21.77;5.07;;;25.50;99.90;;;;;;5255604;28;20028;-66
2022/08/25 10:03:21;;;;;;;18.55;3.63;;;25.50;99.90;;;;;;5248125;28;20028;-65
2022/08/25 10:05:57;;;;;;;18.40;3.85;;;25.40;99.90;;;;;;5254206;28;20092;-66
2022/08/25 10:08:33;;;;;;;15.55;3.75;;;25.50;99.90;;;;;;5255849;28;20384;-63
2022/08/25 10:11:07;;;;;;;17.95;4.18;;;25.50;99.90;;;;;;5262456;28;20032;-63
2022/08/25 10:13:49;;;;;;;17.23;3.78;;;25.40;99.90;;;;;;5252168;28;20081;-65
2022/08/25 10:16:27;;;;;;;11.65;3.30;;;25.40;99.90;;;;;;5254708;28;20028;-63
2022/08/25 10:19:12;;;;;;;22.38;4.35;;;25.40;99.90;;;;;;5251281;28;20032;-65
2022/08/25 10:21:43;;;;;;;10.57;3.58;;;25.60;99.90;;;;;;5262881;28;20029;-64
2022/08/25 10:24:14;;;;;;;21.30;3.75;;;25.70;99.90;;;;;;5261028;28;20034;-64
2022/08/25 10:26:51;;;;;;;17.48;3.85;;;25.80;99.90;;;;;;5254673;28;20078;-65
2022/08/25 10:29:49;;;;;;;16.50;3.30;;;25.80;99.90;;;;;;5266651;28;20467;-62
2022/08/25 10:32:32;;;;;;;19.48;5.88;;;25.60;99.90;;;;;;5261618;28;20061;-66
2022/08/25 10:35:12;;;;;;;16.15;4.72;;;25.90;99.90;;;;;;5268833;28;20155;-63
2022/08/25 10:38:07;;;;;;;13.27;4.60;;;25.90;99.90;;;;;;5256038;28;20027;-62
2022/08/25 10:40:56;;;;;;;15.88;5.20;;;25.90;99.90;;;;;;5260163;28;20031;-63
2022/08/25 10:43:48;;;;;;;19.40;6.18;;;26.00;99.90;;;;;;5238345;28;20067;-63
2022/08/25 10:46:34;;;;;;;15.82;4.13;;;26.10;99.90;;;;;;5258000;28;20024;-63
2022/08/25 10:49:22;;;;;;;20.23;5.75;;;26.00;99.90;;;;;;5265709;28;20393;-64
2022/08/25 10:52:30;;;;;;;12.75;4.47;;;26.00;99.90;;;;;;5257734;28;20534;-63
2022/08/25 10:55:24;;;;;;;17.40;5.57;;;25.90;99.90;;;;;;5222484;28;20056;-65
2022/08/25 10:58:09;;;;;;;17.70;5.22;;;26.00;99.90;;;;;;5258680;28;20795;-65
2022/08/25 11:00:53;;;;;;;16.70;4.88;;;26.00;99.90;;;;;;5254616;28;20166;-63
2022/08/25 11:03:34;;;;;;;18.80;5.57;;;26.10;99.90;;;;;;5235506;28;20032;-67
2022/08/25 11:06:11;;;;;;;13.68;5.95;;;26.20;99.90;;;;;;5257373;28;20041;-63
2022/08/25 11:08:55;;;;;;;14.20;4.97;;;26.20;99.90;;;;;;5261074;28;20023;-65
2022/08/25 11:11:38;;;;;;;11.02;5.50;;;26.20;99.90;;;;;;5237520;28;20470;-66
2022/08/25 11:14:22;;;;;;;17.30;5.10;;;26.20;99.90;;;;;;5258736;28;20037;-66
2022/08/25 11:17:18;;;;;;;13.82;4.25;;;26.20;99.90;;;;;;5243212;28;20055;-66
2022/08/25 11:19:58;;;;;;;15.75;4.22;;;26.30;99.90;;;;;;5252299;28;20024;-65
2022/08/25 11:22:50;;;;;;;19.92;4.43;;;26.30;99.90;;;;;;5261787;28;20482;-62
2022/08/25 11:25:30;;;;;;;9.75;3.58;;;26.30;99.90;;;;;;5252732;28;20057;-62
2022/08/25 11:28:31;;;;;;;12.75;4.05;;;26.20;99.90;;;;;;5259771;28;20131;-63
2022/08/25 11:31:04;;;;;;;8.02;3.08;;;26.30;99.90;;;;;;5264949;28;20035;-64
2022/08/25 11:33:35;;;;;;;8.98;3.25;;;26.30;99.90;;;;;;5253996;28;20059;-62
2022/08/25 11:36:23;;;;;;;12.98;3.45;;;26.20;99.90;;;;;;5258963;28;20035;-65
2022/08/25 11:39:11;;;;;;;11.75;3.50;;;26.30;99.90;;;;;;5257409;28;20046;-65
2022/08/25 11:41:55;;;;;;;12.52;4.18;;;26.30;99.90;;;;;;5261227;28;20021;-63
2022/08/25 11:45:00;;;;;;;10.60;2.65;;;26.30;99.90;;;;;;5260995;28;20051;-63
2022/08/25 11:47:57;;;;;;;7.25;3.20;;;26.40;99.90;;;;;;5238073;28;20035;-65
2022/08/25 11:50:35;;;;;;;13.00;3.35;;;26.40;99.90;;;;;;5255481;28;20048;-65
2022/08/25 11:53:24;;;;;;;13.05;3.15;;;26.40;99.90;;;;;;5264328;28;20011;-66
2022/08/25 11:56:14;;;;;;;13.93;3.57;;;26.40;99.90;;;;;;5256393;28;20059;-63
2022/08/25 11:58:50;;;;;;;9.63;3.47;;;26.50;99.90;;;;;;5252869;28;20024;-65
2022/08/25 12:01:39;;;;;;;13.57;3.35;;;26.40;99.90;;;;;;5264653;28;20036;-67
2022/08/25 12:04:29;;;;;;;12.75;3.40;;;26.50;99.90;;;;;;5258606;28;20792;-67
2022/08/25 12:07:00;;;;;;;9.10;3.22;;;26.50;99.90;;;;;;5252034;28;20098;-65
2022/08/25 12:09:32;;;;;;;10.02;3.30;;;26.50;99.90;;;;;;5263464;28;21001;-63
2022/08/25 12:12:30;;;;;;;11.40;3.40;;;26.60;99.90;;;;;;5257585;28;20036;-65
2022/08/25 12:15:19;;;;;;;13.68;3.13;;;26.60;99.90;;;;;;5251493;28;20044;-63
2022/08/25 12:18:12;;;;;;;12.95;4.18;;;26.40;99.90;;;;;;5260835;28;20021;-66
2022/08/25 12:20:52;;;;;;;18.58;3.50;;;26.50;99.90;;;;;;5262707;28;20028;-63
2022/08/25 12:23:33;;;;;;;14.05;3.35;;;26.50;99.90;;;;;;5235172;28;20032;-65
2022/08/25 12:26:25;;;;;;;12.50;3.10;;;26.50;99.90;;;;;;5258259;28;20024;-66
2022/08/25 12:29:18;;;;;;;9.50;2.78;;;26.40;99.90;;;;;;5263888;28;20106;-63
2022/08/25 12:32:07;;;;;;;12.60;3.00;;;26.40;99.90;;;;;;5255119;28;20024;-63
2022/08/25 12:35:05;;;;;;;15.38;3.63;;;26.50;99.90;;;;;;5253059;28;20059;-65
2022/08/25 12:37:53;;;;;;;16.63;3.65;;;26.40;99.90;;;;;;5219019;28;20036;-66
2022/08/25 12:40:30;;;;;;;6.70;2.38;;;26.40;99.90;;;;;;5252908;28;20054;-66
2022/08/25 12:43:06;;;;;;;7.40;1.70;;;26.00;99.90;;;;;;5236668;28;20024;-65
2022/08/25 12:45:44;;;;;;;5.03;1.20;;;25.70;99.90;;;;;;5261488;28;20051;-66
2022/08/25 12:48:27;;;;;;;3.00;0.80;;;25.00;99.90;;;;;;5258239;28;20031;-67
2022/08/25 12:51:03;;;;;;;2.50;0.90;;;24.60;99.90;;;;;;5250512;28;20127;-64
2022/08/25 12:53:45;;;;;;;4.97;0.93;;;24.50;99.90;;;;;;5262164;28;20398;-64
2022/08/25 12:56:37;;;;;;;7.50;1.33;;;24.70;99.90;;;;;;5258799;28;20035;-65
2022/08/25 12:59:31;;;;;;;6.30;1.85;;;24.30;99.90;;;;;;5250573;28;20025;-66
2022/08/25 13:02:14;;;;;;;4.25;1.48;;;24.70;99.90;;;;;;5258163;28;20068;-63
2022/08/25 13:05:12;;;;;;;2.30;1.30;;;25.10;99.90;;;;;;5262133;28;20044;-62
2022/08/25 13:08:21;;;;;;;4.35;1.55;;;25.40;99.90;;;;;;5239872;28;20464;-62
2022/08/25 13:11:00;;;;;;;6.05;1.63;;;25.60;99.90;;;;;;5223118;28;20048;-63
2022/08/25 13:14:06;;;;;;;3.60;1.35;;;25.70;99.90;;;;;;5262280;28;20067;-64
2022/08/25 13:16:37;;;;;;;3.47;1.40;;;25.70;99.90;;;;;;5230116;28;20033;-65
2022/08/25 13:19:19;;;;;;;4.28;1.63;;;25.80;99.90;;;;;;5238300;28;20021;-66
2022/08/25 13:21:50;;;;;;;3.55;1.52;;;25.70;99.90;;;;;;5254553;28;20028;-63
2022/08/25 13:24:35;;;;;;;3.67;1.70;;;25.70;99.90;;;;;;5260999;28;20510;-63
2022/08/25 13:27:19;;;;;;;4.20;1.40;;;25.80;99.90;;;;;;5247157;28;20037;-65
2022/08/25 13:29:56;;;;;;;3.90;1.70;;;25.80;99.90;;;;;;5255958;28;20375;-63
2022/08/25 13:32:31;;;;;;;3.85;1.83;;;25.80;99.90;;;;;;5267402;28;20024;-63
2022/08/25 13:35:17;;;;;;;5.13;1.20;;;25.70;99.90;;;;;;5250038;28;20062;-63
2022/08/25 13:37:49;;;;;;;5.63;1.65;;;25.80;99.90;;;;;;5259487;28;20019;-63
2022/08/25 13:40:25;;;;;;;4.20;1.45;;;25.70;99.90;;;;;;5253896;28;20032;-66
2022/08/25 13:42:59;;;;;;;5.55;1.58;;;25.80;99.90;;;;;;5263526;28;20028;-63
2022/08/25 13:45:35;;;;;;;2.90;1.40;;;25.80;99.90;;;;;;5251551;28;20773;-63
2022/08/25 13:48:06;;;;;;;4.40;1.67;;;25.70;99.90;;;;;;5256992;28;20020;-63
2022/08/25 13:50:41;;;;;;;2.80;1.30;;;25.80;99.90;;;;;;5260967;28;20108;-63
2022/08/25 13:53:22;;;;;;;4.03;1.33;;;25.90;99.90;;;;;;5250684;28;20025;-63
2022/08/25 13:55:57;;;;;;;3.53;1.40;;;25.80;99.90;;;;;;5260975;28;20028;-63
2022/08/25 13:58:30;;;;;;;3.13;1.30;;;25.80;99.90;;;;;;5263631;28;20056;-63
2022/08/25 14:01:23;;;;;;;2.38;1.35;;;25.90;99.90;;;;;;5254223;28;20082;-63
2022/08/25 14:03:57;;;;;;;2.38;1.48;;;25.80;99.90;;;;;;5262582;28;20032;-65
2022/08/25 14:06:28;;;;;;;2.55;1.48;;;25.60;99.90;;;;;;5263699;28;20035;-64
2022/08/25 14:08:59;;;;;;;5.22;1.10;;;25.60;99.90;;;;;;5260815;28;20024;-63
2022/08/25 14:11:42;;;;;;;4.55;1.10;;;25.60;99.90;;;;;;5255447;28;20019;-65
2022/08/25 14:14:22;;;;;;;3.50;1.52;;;25.70;99.90;;;;;;5259486;28;20044;-65
2022/08/25 14:17:01;;;;;;;4.20;1.17;;;25.80;99.90;;;;;;5266206;28;20024;-64
2022/08/25 14:19:33;;;;;;;5.13;1.20;;;25.80;99.90;;;;;;5255380;28;20055;-64
2022/08/25 14:22:04;;;;;;;6.40;1.50;;;25.00;99.90;;;;;;5260873;28;20036;-64
2022/08/25 14:24:35;;;;;;;4.30;1.40;;;24.10;99.90;;;;;;5264086;28;20032;-64
2022/08/25 14:27:06;;;;;;;5.70;1.52;;;23.80;99.90;;;;;;5253736;28;20115;-62
2022/08/25 14:29:36;;;;;;;3.47;1.40;;;23.70;99.90;;;;;;5264531;28;20157;-65
2022/08/25 14:32:09;;;;;;;3.58;1.33;;;23.50;99.90;;;;;;5260035;28;20020;-65
2022/08/25 14:34:41;;;;;;;1.60;1.25;;;23.60;99.90;;;;;;5254876;28;20060;-63
2022/08/25 14:37:17;;;;;;;4.00;1.55;;;23.50;99.90;;;;;;5266426;28;20040;-62
2022/08/25 14:39:48;;;;;;;6.65;1.77;;;23.40;99.90;;;;;;5257246;28;20029;-62
2022/08/25 14:42:20;;;;;;;3.25;1.48;;;23.50;99.90;;;;;;5262051;28;20028;-65
2022/08/25 14:44:51;;;;;;;5.30;1.67;;;23.40;99.90;;;;;;5253998;28;20115;-63
2022/08/25 14:47:22;;;;;;;3.92;1.38;;;23.40;99.90;;;;;;5265847;28;20142;-62
2022/08/25 14:49:53;;;;;;;2.13;1.50;;;23.30;99.90;;;;;;5257677;28;20027;-65
2022/08/25 14:52:27;;;;;;;3.55;1.70;;;23.20;99.90;;;;;;5257449;28;20025;-65
2022/08/25 14:54:58;;;;;;;3.20;1.70;;;23.20;99.90;;;;;;5255882;28;20051;-63
2022/08/25 14:57:29;;;;;;;2.65;1.50;;;23.10;99.90;;;;;;5264876;28;20025;-63
2022/08/25 15:00:00;;;;;;;3.08;1.13;;;23.00;99.90;;;;;;5258449;28;20036;-63
2022/08/25 15:02:36;;;;;;;3.67;1.67;;;23.00;99.90;;;;;;5254955;28;20029;-62
2022/08/25 15:05:10;;;;;;;4.90;1.88;;;23.10;99.90;;;;;;5265690;28;20031;-65
2022/08/25 15:10:30;;;;;;;3.10;1.67;;;23.20;99.90;;;;;;5256616;28;20028;-63
2022/08/25 15:13:01;;;;;;;4.25;1.90;;;23.10;99.90;;;;;;5265383;28;20028;-65
2022/08/25 15:15:36;;;;;;;4.72;2.03;;;23.20;99.90;;;;;;5254118;28;20755;-63
2022/08/25 15:18:07;;;;;;;2.78;1.98;;;23.10;99.90;;;;;;5259095;28;20060;-63
2022/08/25 15:20:38;;;;;;;4.13;1.63;;;22.90;99.90;;;;;;5263378;28;20050;-63
2022/08/25 15:23:09;;;;;;;4.95;2.00;;;23.00;99.90;;;;;;5252710;28;20024;-63
2022/08/25 15:25:41;;;;;;;4.13;2.03;;;23.00;99.90;;;;;;5262750;28;20029;-63
2022/08/25 15:28:12;;;;;;;2.50;1.70;;;23.10;99.90;;;;;;5259550;28;20467;-65
2022/08/25 15:30:43;;;;;;;4.43;1.30;;;23.10;99.90;;;;;;5253592;28;20035;-65
2022/08/25 15:33:14;;;;;;;2.35;1.65;;;23.10;99.90;;;;;;5264638;28;20487;-62
2022/08/25 15:35:45;;;;;;;4.97;1.95;;;23.10;99.90;;;;;;5256071;28;20035;-62
2022/08/25 15:38:16;;;;;;;5.97;2.13;;;23.00;99.90;;;;;;5259801;28;20027;-65
2022/08/25 15:40:47;;;;;;;5.38;1.88;;;23.00;99.90;;;;;;5253159;28;20032;-66
2022/08/25 15:43:18;;;;;;;3.58;1.92;;;23.10;99.90;;;;;;5265118;28;20016;-64
2022/08/25 15:45:49;;;;;;;3.65;1.67;;;23.00;99.90;;;;;;5255926;28;20024;-63
2022/08/25 15:48:20;;;;;;;2.88;1.67;;;22.90;99.90;;;;;;5256853;28;20028;-62
2022/08/25 15:50:55;;;;;;;4.47;1.88;;;22.90;99.90;;;;;;5264511;28;20036;-64
2022/08/25 15:53:28;;;;;;;3.30;1.80;;;22.90;99.90;;;;;;5236695;28;20084;-62
2022/08/25 15:56:00;;;;;;;4.20;1.65;;;22.90;99.90;;;;;;5259934;28;20024;-64
2022/08/25 15:58:33;;;;;;;4.30;2.00;;;22.90;99.90;;;;;;5261613;28;20101;-62
2022/08/25 16:01:04;;;;;;;5.63;1.85;;;22.90;99.90;;;;;;5251922;28;20043;-61
2022/08/25 16:03:35;;;;;;;3.53;1.88;;;22.90;99.90;;;;;;5262643;28;20041;-62
